sensor_id;sensor_type;location;lat;lon;timestamp;P1;durP1;ratioP1;P2;durP2;ratioP2
44130;SDS011;29792;48.726;9.248;2022-10-26T00:01:25;3.13;;;2.70;;
44130;SDS011;29792;48.726;9.248;2022-10-26T00:03:53;6.18;;;2.63;;
44130;SDS011;29792;48.726;9.248;2022-10-26T00:06:20;4.93;;;2.17;;
44130;SDS011;29792;48.726;9.248;2022-10-26T00:08:50;3.90;;;2.78;;
44130;SDS011;29792;48.726;9.248;2022-10-26T00:11:16;4.57;;;3.05;;
44130;SDS011;29792;48.726;9.248;2022-10-26T00:13:42;4.35;;;3.20;;
44130;SDS011;29792;48.726;9.248;2022-10-26T00:16:09;3.85;;;2.58;;
44130;SDS011;29792;48.726;9.248;2022-10-26T00:18:36;5.68;;;2.78;;
44130;SDS011;29792;48.726;9.248;2022-10-26T00:21:02;6.80;;;2.60;;
44130;SDS011;29792;48.726;9.248;2022-10-26T00:23:30;5.13;;;2.38;;
44130;SDS011;29792;48.726;9.248;2022-10-26T00:25:56;5.63;;;2.70;;
44130;SDS011;29792;48.726;9.248;2022-10-26T00:28:21;3.38;;;2.38;;
44130;SDS011;29792;48.726;9.248;2022-10-26T00:30:46;5.30;;;2.47;;
44130;SDS011;29792;48.726;9.248;2022-10-26T00:33:12;4.30;;;2.75;;
44130;SDS011;29792;48.726;9.248;2022-10-26T00:35:38;3.90;;;2.17;;
44130;SDS011;29792;48.726;9.248;2022-10-26T00:38:03;5.35;;;3.05;;
44130;SDS011;29792;48.726;9.248;2022-10-26T00:40:28;4.97;;;2.35;;
44130;SDS011;29792;48.726;9.248;2022-10-26T00:42:54;3.55;;;2.85;;
44130;SDS011;29792;48.726;9.248;2022-10-26T00:45:23;5.07;;;3.10;;
44130;SDS011;29792;48.726;9.248;2022-10-26T00:48:10;4.45;;;2.58;;
44130;SDS011;29792;48.726;9.248;2022-10-26T00:50:45;5.18;;;3.00;;
44130;SDS011;29792;48.726;9.248;2022-10-26T00:53:11;5.60;;;2.60;;
44130;SDS011;29792;48.726;9.248;2022-10-26T00:55:38;4.38;;;2.72;;
44130;SDS011;29792;48.726;9.248;2022-10-26T00:58:07;6.15;;;3.92;;
44130;SDS011;29792;48.726;9.248;2022-10-26T01:00:34;4.75;;;3.38;;
44130;SDS011;29792;48.726;9.248;2022-10-26T01:03:03;4.20;;;2.75;;
44130;SDS011;29792;48.726;9.248;2022-10-26T01:05:30;4.35;;;2.03;;
44130;SDS011;29792;48.726;9.248;2022-10-26T01:07:57;5.18;;;2.08;;
44130;SDS011;29792;48.726;9.248;2022-10-26T01:10:23;3.92;;;2.30;;
44130;SDS011;29792;48.726;9.248;2022-10-26T01:12:50;4.88;;;2.63;;
44130;SDS011;29792;48.726;9.248;2022-10-26T01:15:16;2.72;;;1.65;;
44130;SDS011;29792;48.726;9.248;2022-10-26T01:23:15;5.38;;;2.30;;
44130;SDS011;29792;48.726;9.248;2022-10-26T01:31:23;6.60;;;3.40;;
44130;SDS011;29792;48.726;9.248;2022-10-26T01:34:19;3.55;;;2.30;;
44130;SDS011;29792;48.726;9.248;2022-10-26T01:36:52;3.00;;;1.98;;
44130;SDS011;29792;48.726;9.248;2022-10-26T01:39:26;5.60;;;3.35;;
44130;SDS011;29792;48.726;9.248;2022-10-26T01:42:05;4.32;;;2.28;;
44130;SDS011;29792;48.726;9.248;2022-10-26T01:44:38;7.63;;;3.15;;
44130;SDS011;29792;48.726;9.248;2022-10-26T01:47:08;3.67;;;2.78;;
44130;SDS011;29792;48.726;9.248;2022-10-26T01:49:46;3.75;;;2.72;;
44130;SDS011;29792;48.726;9.248;2022-10-26T01:52:17;9.15;;;4.13;;
44130;SDS011;29792;48.726;9.248;2022-10-26T01:54:43;4.45;;;2.55;;
44130;SDS011;29792;48.726;9.248;2022-10-26T01:57:10;4.55;;;2.22;;
44130;SDS011;29792;48.726;9.248;2022-10-26T01:59:45;4.72;;;2.85;;
44130;SDS011;29792;48.726;9.248;2022-10-26T02:02:31;4.40;;;3.10;;
44130;SDS011;29792;48.726;9.248;2022-10-26T02:11:01;4.80;;;2.78;;
44130;SDS011;29792;48.726;9.248;2022-10-26T02:13:48;4.30;;;2.70;;
44130;SDS011;29792;48.726;9.248;2022-10-26T02:16:31;4.18;;;2.58;;
44130;SDS011;29792;48.726;9.248;2022-10-26T02:22:21;3.63;;;2.30;;
44130;SDS011;29792;48.726;9.248;2022-10-26T02:24:51;3.80;;;2.65;;
44130;SDS011;29792;48.726;9.248;2022-10-26T02:27:25;3.47;;;2.78;;
44130;SDS011;29792;48.726;9.248;2022-10-26T02:29:53;3.50;;;2.45;;
44130;SDS011;29792;48.726;9.248;2022-10-26T02:32:24;2.85;;;2.60;;
44130;SDS011;29792;48.726;9.248;2022-10-26T02:34:54;5.68;;;3.80;;
44130;SDS011;29792;48.726;9.248;2022-10-26T02:37:22;4.82;;;2.53;;
44130;SDS011;29792;48.726;9.248;2022-10-26T02:39:49;5.13;;;2.40;;
44130;SDS011;29792;48.726;9.248;2022-10-26T02:42:17;8.40;;;4.10;;
44130;SDS011;29792;48.726;9.248;2022-10-26T02:44:45;4.93;;;3.58;;
44130;SDS011;29792;48.726;9.248;2022-10-26T02:47:15;4.40;;;2.33;;
44130;SDS011;29792;48.726;9.248;2022-10-26T02:49:42;4.38;;;2.67;;
44130;SDS011;29792;48.726;9.248;2022-10-26T02:52:21;6.72;;;3.30;;
44130;SDS011;29792;48.726;9.248;2022-10-26T02:54:59;3.83;;;2.65;;
44130;SDS011;29792;48.726;9.248;2022-10-26T02:57:33;7.68;;;3.20;;
44130;SDS011;29792;48.726;9.248;2022-10-26T03:00:07;3.90;;;2.30;;
44130;SDS011;29792;48.726;9.248;2022-10-26T03:02:34;3.95;;;2.95;;
44130;SDS011;29792;48.726;9.248;2022-10-26T03:05:13;9.70;;;3.65;;
44130;SDS011;29792;48.726;9.248;2022-10-26T03:07:43;9.95;;;4.22;;
44130;SDS011;29792;48.726;9.248;2022-10-26T03:10:08;5.05;;;3.30;;
44130;SDS011;29792;48.726;9.248;2022-10-26T03:12:34;3.35;;;2.67;;
44130;SDS011;29792;48.726;9.248;2022-10-26T03:14:59;8.52;;;3.63;;
44130;SDS011;29792;48.726;9.248;2022-10-26T03:17:24;5.35;;;2.75;;
44130;SDS011;29792;48.726;9.248;2022-10-26T03:19:50;7.75;;;4.07;;
44130;SDS011;29792;48.726;9.248;2022-10-26T03:22:15;3.85;;;3.15;;
44130;SDS011;29792;48.726;9.248;2022-10-26T03:24:40;4.57;;;3.08;;
44130;SDS011;29792;48.726;9.248;2022-10-26T03:27:05;5.82;;;2.92;;
44130;SDS011;29792;48.726;9.248;2022-10-26T03:29:31;3.95;;;2.20;;
44130;SDS011;29792;48.726;9.248;2022-10-26T03:31:56;5.63;;;2.30;;
44130;SDS011;29792;48.726;9.248;2022-10-26T03:34:21;5.03;;;2.30;;
44130;SDS011;29792;48.726;9.248;2022-10-26T03:36:46;4.30;;;2.55;;
44130;SDS011;29792;48.726;9.248;2022-10-26T03:39:12;5.43;;;2.65;;
44130;SDS011;29792;48.726;9.248;2022-10-26T03:41:37;3.20;;;2.10;;
44130;SDS011;29792;48.726;9.248;2022-10-26T03:44:02;4.22;;;2.10;;
44130;SDS011;29792;48.726;9.248;2022-10-26T03:46:28;3.40;;;1.80;;
44130;SDS011;29792;48.726;9.248;2022-10-26T03:48:53;3.78;;;2.17;;
44130;SDS011;29792;48.726;9.248;2022-10-26T03:51:18;4.88;;;2.97;;
44130;SDS011;29792;48.726;9.248;2022-10-26T03:53:43;3.40;;;3.00;;
44130;SDS011;29792;48.726;9.248;2022-10-26T03:56:09;4.13;;;2.95;;
44130;SDS011;29792;48.726;9.248;2022-10-26T03:58:34;5.45;;;1.98;;
44130;SDS011;29792;48.726;9.248;2022-10-26T04:00:59;4.70;;;2.47;;
44130;SDS011;29792;48.726;9.248;2022-10-26T04:03:24;3.78;;;3.25;;
44130;SDS011;29792;48.726;9.248;2022-10-26T04:05:50;4.70;;;2.47;;
44130;SDS011;29792;48.726;9.248;2022-10-26T04:08:15;2.55;;;2.35;;
44130;SDS011;29792;48.726;9.248;2022-10-26T04:10:40;4.60;;;2.78;;
44130;SDS011;29792;48.726;9.248;2022-10-26T04:13:05;6.38;;;2.88;;
44130;SDS011;29792;48.726;9.248;2022-10-26T04:15:31;7.18;;;2.55;;
44130;SDS011;29792;48.726;9.248;2022-10-26T04:17:56;2.22;;;1.80;;
44130;SDS011;29792;48.726;9.248;2022-10-26T04:20:23;4.00;;;2.30;;
44130;SDS011;29792;48.726;9.248;2022-10-26T04:23:05;8.75;;;2.53;;
44130;SDS011;29792;48.726;9.248;2022-10-26T04:25:31;3.80;;;2.45;;
44130;SDS011;29792;48.726;9.248;2022-10-26T04:27:57;5.28;;;2.90;;
44130;SDS011;29792;48.726;9.248;2022-10-26T04:30:23;4.03;;;2.28;;
44130;SDS011;29792;48.726;9.248;2022-10-26T04:32:48;4.55;;;2.67;;
44130;SDS011;29792;48.726;9.248;2022-10-26T04:35:13;5.72;;;2.58;;
44130;SDS011;29792;48.726;9.248;2022-10-26T04:37:39;8.88;;;2.65;;
44130;SDS011;29792;48.726;9.248;2022-10-26T04:40:04;5.93;;;2.38;;
44130;SDS011;29792;48.726;9.248;2022-10-26T04:42:30;6.25;;;3.08;;
44130;SDS011;29792;48.726;9.248;2022-10-26T04:44:58;4.47;;;2.20;;
44130;SDS011;29792;48.726;9.248;2022-10-26T04:47:23;8.70;;;2.63;;
44130;SDS011;29792;48.726;9.248;2022-10-26T04:49:48;3.13;;;2.47;;
44130;SDS011;29792;48.726;9.248;2022-10-26T04:52:14;3.03;;;2.45;;
44130;SDS011;29792;48.726;9.248;2022-10-26T04:54:39;2.78;;;2.40;;
44130;SDS011;29792;48.726;9.248;2022-10-26T04:57:04;3.83;;;2.22;;
44130;SDS011;29792;48.726;9.248;2022-10-26T04:59:29;3.58;;;2.60;;
44130;SDS011;29792;48.726;9.248;2022-10-26T05:01:55;6.30;;;2.67;;
44130;SDS011;29792;48.726;9.248;2022-10-26T05:04:20;4.88;;;3.42;;
44130;SDS011;29792;48.726;9.248;2022-10-26T05:06:45;6.15;;;3.28;;
44130;SDS011;29792;48.726;9.248;2022-10-26T05:09:10;4.85;;;3.28;;
44130;SDS011;29792;48.726;9.248;2022-10-26T05:11:36;3.55;;;2.25;;
44130;SDS011;29792;48.726;9.248;2022-10-26T05:14:01;6.65;;;2.90;;
44130;SDS011;29792;48.726;9.248;2022-10-26T05:16:26;2.97;;;2.40;;
44130;SDS011;29792;48.726;9.248;2022-10-26T05:18:51;6.53;;;3.08;;
44130;SDS011;29792;48.726;9.248;2022-10-26T05:21:17;4.50;;;2.97;;
44130;SDS011;29792;48.726;9.248;2022-10-26T05:23:49;5.97;;;2.92;;
44130;SDS011;29792;48.726;9.248;2022-10-26T05:26:16;7.53;;;4.32;;
44130;SDS011;29792;48.726;9.248;2022-10-26T05:28:42;4.07;;;3.20;;
44130;SDS011;29792;48.726;9.248;2022-10-26T05:31:07;5.35;;;3.50;;
44130;SDS011;29792;48.726;9.248;2022-10-26T05:33:32;4.38;;;2.53;;
44130;SDS011;29792;48.726;9.248;2022-10-26T05:35:57;6.15;;;3.95;;
44130;SDS011;29792;48.726;9.248;2022-10-26T05:38:23;11.68;;;3.83;;
44130;SDS011;29792;48.726;9.248;2022-10-26T05:40:52;4.22;;;3.30;;
44130;SDS011;29792;48.726;9.248;2022-10-26T05:43:19;6.38;;;3.60;;
44130;SDS011;29792;48.726;9.248;2022-10-26T05:45:45;4.85;;;3.88;;
44130;SDS011;29792;48.726;9.248;2022-10-26T05:48:11;5.35;;;3.15;;
44130;SDS011;29792;48.726;9.248;2022-10-26T05:50:36;3.53;;;2.78;;
44130;SDS011;29792;48.726;9.248;2022-10-26T05:53:02;2.90;;;2.45;;
44130;SDS011;29792;48.726;9.248;2022-10-26T05:55:27;2.95;;;2.40;;
44130;SDS011;29792;48.726;9.248;2022-10-26T05:57:53;5.10;;;2.90;;
44130;SDS011;29792;48.726;9.248;2022-10-26T06:00:23;4.10;;;2.75;;
44130;SDS011;29792;48.726;9.248;2022-10-26T06:06:03;9.07;;;3.70;;
44130;SDS011;29792;48.726;9.248;2022-10-26T06:08:29;4.78;;;2.15;;
44130;SDS011;29792;48.726;9.248;2022-10-26T06:10:55;2.75;;;1.98;;
44130;SDS011;29792;48.726;9.248;2022-10-26T06:13:23;5.40;;;2.10;;
44130;SDS011;29792;48.726;9.248;2022-10-26T06:19:09;3.15;;;2.03;;
44130;SDS011;29792;48.726;9.248;2022-10-26T06:22:00;4.28;;;2.17;;
44130;SDS011;29792;48.726;9.248;2022-10-26T06:27:23;4.57;;;2.70;;
44130;SDS011;29792;48.726;9.248;2022-10-26T06:30:07;3.22;;;1.75;;
44130;SDS011;29792;48.726;9.248;2022-10-26T06:32:35;3.55;;;2.38;;
44130;SDS011;29792;48.726;9.248;2022-10-26T06:37:35;5.73;;;1.93;;
44130;SDS011;29792;48.726;9.248;2022-10-26T06:40:01;2.97;;;1.20;;
44130;SDS011;29792;48.726;9.248;2022-10-26T06:42:28;4.72;;;1.30;;
44130;SDS011;29792;48.726;9.248;2022-10-26T06:44:56;4.82;;;1.40;;
44130;SDS011;29792;48.726;9.248;2022-10-26T06:47:22;1.70;;;1.40;;
44130;SDS011;29792;48.726;9.248;2022-10-26T06:55:44;5.55;;;2.13;;
44130;SDS011;29792;48.726;9.248;2022-10-26T06:58:16;2.38;;;1.95;;
44130;SDS011;29792;48.726;9.248;2022-10-26T07:00:43;4.15;;;1.70;;
44130;SDS011;29792;48.726;9.248;2022-10-26T07:03:10;2.17;;;1.80;;
44130;SDS011;29792;48.726;9.248;2022-10-26T07:05:35;1.67;;;1.52;;
44130;SDS011;29792;48.726;9.248;2022-10-26T07:08:01;2.80;;;1.40;;
44130;SDS011;29792;48.726;9.248;2022-10-26T07:10:26;4.80;;;1.75;;
44130;SDS011;29792;48.726;9.248;2022-10-26T07:12:51;3.70;;;1.58;;
44130;SDS011;29792;48.726;9.248;2022-10-26T07:15:17;6.75;;;2.63;;
44130;SDS011;29792;48.726;9.248;2022-10-26T07:17:46;2.88;;;1.45;;
44130;SDS011;29792;48.726;9.248;2022-10-26T07:20:12;2.05;;;1.20;;
44130;SDS011;29792;48.726;9.248;2022-10-26T07:22:38;7.18;;;4.55;;
44130;SDS011;29792;48.726;9.248;2022-10-26T07:25:04;3.72;;;1.48;;
44130;SDS011;29792;48.726;9.248;2022-10-26T07:27:31;2.88;;;1.77;;
44130;SDS011;29792;48.726;9.248;2022-10-26T07:29:57;2.05;;;1.05;;
44130;SDS011;29792;48.726;9.248;2022-10-26T07:32:22;2.78;;;1.90;;
44130;SDS011;29792;48.726;9.248;2022-10-26T07:34:48;2.63;;;1.40;;
44130;SDS011;29792;48.726;9.248;2022-10-26T07:37:13;2.47;;;1.35;;
44130;SDS011;29792;48.726;9.248;2022-10-26T07:39:38;4.78;;;1.83;;
44130;SDS011;29792;48.726;9.248;2022-10-26T07:42:03;4.53;;;1.60;;
44130;SDS011;29792;48.726;9.248;2022-10-26T07:44:29;4.38;;;1.73;;
44130;SDS011;29792;48.726;9.248;2022-10-26T07:46:54;2.63;;;1.50;;
44130;SDS011;29792;48.726;9.248;2022-10-26T07:49:19;3.95;;;1.95;;
44130;SDS011;29792;48.726;9.248;2022-10-26T07:51:44;4.05;;;1.83;;
44130;SDS011;29792;48.726;9.248;2022-10-26T07:54:10;2.78;;;1.90;;
44130;SDS011;29792;48.726;9.248;2022-10-26T07:56:35;4.55;;;2.15;;
44130;SDS011;29792;48.726;9.248;2022-10-26T07:59:00;3.78;;;1.75;;
44130;SDS011;29792;48.726;9.248;2022-10-26T08:01:25;3.90;;;1.92;;
44130;SDS011;29792;48.726;9.248;2022-10-26T08:03:51;3.42;;;1.92;;
44130;SDS011;29792;48.726;9.248;2022-10-26T08:06:17;3.33;;;1.40;;
44130;SDS011;29792;48.726;9.248;2022-10-26T08:08:43;4.80;;;1.63;;
44130;SDS011;29792;48.726;9.248;2022-10-26T08:11:08;3.83;;;1.67;;
44130;SDS011;29792;48.726;9.248;2022-10-26T08:13:33;5.88;;;1.80;;
44130;SDS011;29792;48.726;9.248;2022-10-26T08:16:00;2.65;;;1.10;;
44130;SDS011;29792;48.726;9.248;2022-10-26T08:18:28;4.28;;;2.20;;
44130;SDS011;29792;48.726;9.248;2022-10-26T08:20:53;3.53;;;1.88;;
44130;SDS011;29792;48.726;9.248;2022-10-26T08:23:19;2.85;;;1.60;;
44130;SDS011;29792;48.726;9.248;2022-10-26T08:25:45;3.75;;;1.50;;
44130;SDS011;29792;48.726;9.248;2022-10-26T08:28:11;5.75;;;2.03;;
44130;SDS011;29792;48.726;9.248;2022-10-26T08:30:36;3.38;;;2.13;;
44130;SDS011;29792;48.726;9.248;2022-10-26T08:33:03;1.83;;;1.73;;
44130;SDS011;29792;48.726;9.248;2022-10-26T08:35:30;5.47;;;1.90;;
44130;SDS011;29792;48.726;9.248;2022-10-26T08:37:56;2.78;;;1.65;;
44130;SDS011;29792;48.726;9.248;2022-10-26T08:40:24;3.28;;;2.03;;
44130;SDS011;29792;48.726;9.248;2022-10-26T08:42:54;4.57;;;1.63;;
44130;SDS011;29792;48.726;9.248;2022-10-26T08:45:40;9.68;;;2.72;;
44130;SDS011;29792;48.726;9.248;2022-10-26T08:48:14;4.70;;;3.42;;
44130;SDS011;29792;48.726;9.248;2022-10-26T08:51:02;3.20;;;1.67;;
44130;SDS011;29792;48.726;9.248;2022-10-26T08:56:05;3.47;;;1.70;;
44130;SDS011;29792;48.726;9.248;2022-10-26T08:58:36;3.15;;;1.55;;
44130;SDS011;29792;48.726;9.248;2022-10-26T09:01:04;3.35;;;1.50;;
44130;SDS011;29792;48.726;9.248;2022-10-26T09:03:29;4.68;;;1.50;;
44130;SDS011;29792;48.726;9.248;2022-10-26T09:11:26;4.75;;;2.65;;
44130;SDS011;29792;48.726;9.248;2022-10-26T09:14:06;4.38;;;2.30;;
44130;SDS011;29792;48.726;9.248;2022-10-26T09:19:43;2.58;;;1.60;;
44130;SDS011;29792;48.726;9.248;2022-10-26T09:22:03;3.35;;;2.45;;
44130;SDS011;29792;48.726;9.248;2022-10-26T09:24:39;2.28;;;1.80;;
44130;SDS011;29792;48.726;9.248;2022-10-26T09:27:23;3.20;;;2.15;;
44130;SDS011;29792;48.726;9.248;2022-10-26T09:29:52;6.03;;;1.48;;
44130;SDS011;29792;48.726;9.248;2022-10-26T09:32:22;3.95;;;1.58;;
44130;SDS011;29792;48.726;9.248;2022-10-26T09:35:03;6.75;;;2.17;;
44130;SDS011;29792;48.726;9.248;2022-10-26T09:37:38;3.33;;;1.85;;
44130;SDS011;29792;48.726;9.248;2022-10-26T09:40:15;4.13;;;2.13;;
44130;SDS011;29792;48.726;9.248;2022-10-26T09:47:53;2.42;;;1.27;;
44130;SDS011;29792;48.726;9.248;2022-10-26T09:50:36;3.35;;;1.23;;
44130;SDS011;29792;48.726;9.248;2022-10-26T09:53:04;3.95;;;0.90;;
44130;SDS011;29792;48.726;9.248;2022-10-26T09:55:32;3.88;;;1.40;;
44130;SDS011;29792;48.726;9.248;2022-10-26T09:58:03;6.68;;;1.88;;
44130;SDS011;29792;48.726;9.248;2022-10-26T10:00:36;2.83;;;1.13;;
44130;SDS011;29792;48.726;9.248;2022-10-26T10:03:02;6.40;;;3.40;;
44130;SDS011;29792;48.726;9.248;2022-10-26T10:05:44;3.95;;;2.65;;
44130;SDS011;29792;48.726;9.248;2022-10-26T10:08:20;2.88;;;1.27;;
44130;SDS011;29792;48.726;9.248;2022-10-26T10:11:07;2.28;;;1.20;;
44130;SDS011;29792;48.726;9.248;2022-10-26T10:13:42;1.88;;;0.95;;
44130;SDS011;29792;48.726;9.248;2022-10-26T10:16:19;3.80;;;1.30;;
44130;SDS011;29792;48.726;9.248;2022-10-26T10:18:53;3.33;;;1.33;;
44130;SDS011;29792;48.726;9.248;2022-10-26T10:21:21;4.25;;;2.03;;
44130;SDS011;29792;48.726;9.248;2022-10-26T10:24:31;5.50;;;2.10;;
44130;SDS011;29792;48.726;9.248;2022-10-26T10:29:54;5.22;;;1.40;;
44130;SDS011;29792;48.726;9.248;2022-10-26T10:34:52;2.78;;;1.38;;
44130;SDS011;29792;48.726;9.248;2022-10-26T10:37:28;6.57;;;1.27;;
44130;SDS011;29792;48.726;9.248;2022-10-26T10:40:22;3.53;;;1.30;;
44130;SDS011;29792;48.726;9.248;2022-10-26T10:42:47;6.78;;;1.52;;
44130;SDS011;29792;48.726;9.248;2022-10-26T10:45:18;2.50;;;1.30;;
44130;SDS011;29792;48.726;9.248;2022-10-26T10:48:00;6.47;;;2.58;;
44130;SDS011;29792;48.726;9.248;2022-10-26T10:50:29;3.67;;;1.63;;
44130;SDS011;29792;48.726;9.248;2022-10-26T10:53:12;6.68;;;1.42;;
44130;SDS011;29792;48.726;9.248;2022-10-26T10:55:42;6.75;;;1.77;;
44130;SDS011;29792;48.726;9.248;2022-10-26T10:58:23;11.18;;;2.08;;
44130;SDS011;29792;48.726;9.248;2022-10-26T11:00:54;3.95;;;2.28;;
44130;SDS011;29792;48.726;9.248;2022-10-26T11:08:49;6.70;;;1.77;;
44130;SDS011;29792;48.726;9.248;2022-10-26T11:11:31;5.00;;;1.02;;
44130;SDS011;29792;48.726;9.248;2022-10-26T11:14:07;8.07;;;2.53;;
44130;SDS011;29792;48.726;9.248;2022-10-26T11:16:39;4.32;;;1.20;;
44130;SDS011;29792;48.726;9.248;2022-10-26T11:21:43;4.10;;;1.30;;
44130;SDS011;29792;48.726;9.248;2022-10-26T11:24:24;3.75;;;1.45;;
44130;SDS011;29792;48.726;9.248;2022-10-26T11:26:54;5.65;;;0.88;;
44130;SDS011;29792;48.726;9.248;2022-10-26T11:37:10;4.33;;;1.07;;
44130;SDS011;29792;48.726;9.248;2022-10-26T11:39:44;3.42;;;1.77;;
44130;SDS011;29792;48.726;9.248;2022-10-26T11:42:18;3.10;;;1.58;;
44130;SDS011;29792;48.726;9.248;2022-10-26T11:44:51;1.45;;;0.85;;
44130;SDS011;29792;48.726;9.248;2022-10-26T11:47:23;4.30;;;1.05;;
44130;SDS011;29792;48.726;9.248;2022-10-26T11:52:55;4.93;;;1.40;;
44130;SDS011;29792;48.726;9.248;2022-10-26T11:55:25;1.50;;;0.93;;
44130;SDS011;29792;48.726;9.248;2022-10-26T11:57:53;4.75;;;2.25;;
44130;SDS011;29792;48.726;9.248;2022-10-26T12:00:19;4.40;;;2.38;;
44130;SDS011;29792;48.726;9.248;2022-10-26T12:02:56;3.25;;;1.08;;
44130;SDS011;29792;48.726;9.248;2022-10-26T12:07:56;3.20;;;1.03;;
44130;SDS011;29792;48.726;9.248;2022-10-26T12:10:26;3.03;;;1.00;;
44130;SDS011;29792;48.726;9.248;2022-10-26T12:15:53;3.63;;;0.80;;
44130;SDS011;29792;48.726;9.248;2022-10-26T12:18:23;3.67;;;1.20;;
44130;SDS011;29792;48.726;9.248;2022-10-26T12:23:27;3.85;;;1.92;;
44130;SDS011;29792;48.726;9.248;2022-10-26T12:34:07;5.95;;;1.25;;
44130;SDS011;29792;48.726;9.248;2022-10-26T12:36:45;3.92;;;2.58;;
44130;SDS011;29792;48.726;9.248;2022-10-26T12:41:57;1.92;;;1.15;;
44130;SDS011;29792;48.726;9.248;2022-10-26T12:46:59;3.83;;;0.90;;
44130;SDS011;29792;48.726;9.248;2022-10-26T13:06:16;6.28;;;1.92;;
44130;SDS011;29792;48.726;9.248;2022-10-26T13:09:07;9.13;;;1.67;;
44130;SDS011;29792;48.726;9.248;2022-10-26T13:11:42;3.20;;;1.02;;
44130;SDS011;29792;48.726;9.248;2022-10-26T13:14:24;8.00;;;1.90;;
44130;SDS011;29792;48.726;9.248;2022-10-26T13:16:53;5.45;;;1.65;;
44130;SDS011;29792;48.726;9.248;2022-10-26T13:21:54;5.60;;;1.10;;
44130;SDS011;29792;48.726;9.248;2022-10-26T13:24:23;9.25;;;2.28;;
44130;SDS011;29792;48.726;9.248;2022-10-26T13:29:32;4.57;;;1.40;;
44130;SDS011;29792;48.726;9.248;2022-10-26T13:32:17;6.70;;;0.95;;
44130;SDS011;29792;48.726;9.248;2022-10-26T13:34:43;1.85;;;0.75;;
44130;SDS011;29792;48.726;9.248;2022-10-26T13:37:11;2.17;;;1.15;;
44130;SDS011;29792;48.726;9.248;2022-10-26T13:39:46;4.18;;;2.30;;
44130;SDS011;29792;48.726;9.248;2022-10-26T13:42:19;11.23;;;4.35;;
44130;SDS011;29792;48.726;9.248;2022-10-26T13:44:58;1.75;;;1.15;;
44130;SDS011;29792;48.726;9.248;2022-10-26T13:47:28;6.63;;;2.28;;
44130;SDS011;29792;48.726;9.248;2022-10-26T13:50:03;6.88;;;1.45;;
44130;SDS011;29792;48.726;9.248;2022-10-26T13:52:32;3.15;;;0.70;;
44130;SDS011;29792;48.726;9.248;2022-10-26T13:55:04;3.05;;;1.30;;
44130;SDS011;29792;48.726;9.248;2022-10-26T13:57:35;5.45;;;1.67;;
44130;SDS011;29792;48.726;9.248;2022-10-26T14:02:31;4.93;;;1.58;;
44130;SDS011;29792;48.726;9.248;2022-10-26T14:05:00;3.05;;;1.23;;
44130;SDS011;29792;48.726;9.248;2022-10-26T14:10:01;3.58;;;1.02;;
44130;SDS011;29792;48.726;9.248;2022-10-26T14:12:27;4.03;;;1.42;;
44130;SDS011;29792;48.726;9.248;2022-10-26T14:14:54;7.50;;;1.48;;
44130;SDS011;29792;48.726;9.248;2022-10-26T14:17:30;5.93;;;1.05;;
44130;SDS011;29792;48.726;9.248;2022-10-26T14:19:56;3.50;;;0.80;;
44130;SDS011;29792;48.726;9.248;2022-10-26T14:22:22;5.78;;;1.52;;
44130;SDS011;29792;48.726;9.248;2022-10-26T14:24:53;2.83;;;0.90;;
44130;SDS011;29792;48.726;9.248;2022-10-26T14:27:21;6.72;;;1.75;;
44130;SDS011;29792;48.726;9.248;2022-10-26T14:29:49;6.15;;;3.75;;
44130;SDS011;29792;48.726;9.248;2022-10-26T14:32:25;4.97;;;1.33;;
44130;SDS011;29792;48.726;9.248;2022-10-26T14:34:52;3.33;;;1.30;;
44130;SDS011;29792;48.726;9.248;2022-10-26T14:37:22;3.03;;;0.70;;
44130;SDS011;29792;48.726;9.248;2022-10-26T14:40:04;4.53;;;0.90;;
44130;SDS011;29792;48.726;9.248;2022-10-26T14:42:32;5.47;;;1.10;;
44130;SDS011;29792;48.726;9.248;2022-10-26T14:44:59;4.30;;;1.02;;
44130;SDS011;29792;48.726;9.248;2022-10-26T14:47:26;3.72;;;1.05;;
44130;SDS011;29792;48.726;9.248;2022-10-26T14:49:54;4.35;;;1.75;;
44130;SDS011;29792;48.726;9.248;2022-10-26T14:52:42;4.00;;;0.80;;
44130;SDS011;29792;48.726;9.248;2022-10-26T14:55:13;5.63;;;0.90;;
44130;SDS011;29792;48.726;9.248;2022-10-26T14:57:40;3.28;;;0.68;;
44130;SDS011;29792;48.726;9.248;2022-10-26T15:00:17;7.35;;;1.67;;
44130;SDS011;29792;48.726;9.248;2022-10-26T15:02:48;5.95;;;1.85;;
44130;SDS011;29792;48.726;9.248;2022-10-26T15:07:50;3.00;;;0.75;;
44130;SDS011;29792;48.726;9.248;2022-10-26T15:15:46;2.97;;;1.02;;
44130;SDS011;29792;48.726;9.248;2022-10-26T15:18:29;2.55;;;1.10;;
44130;SDS011;29792;48.726;9.248;2022-10-26T15:20:59;4.70;;;1.73;;
44130;SDS011;29792;48.726;9.248;2022-10-26T15:23:25;4.03;;;0.82;;
44130;SDS011;29792;48.726;9.248;2022-10-26T15:25:54;6.32;;;1.77;;
44130;SDS011;29792;48.726;9.248;2022-10-26T15:28:21;3.88;;;1.58;;
44130;SDS011;29792;48.726;9.248;2022-10-26T15:33:30;2.40;;;1.17;;
44130;SDS011;29792;48.726;9.248;2022-10-26T15:38:42;2.88;;;0.65;;
44130;SDS011;29792;48.726;9.248;2022-10-26T15:41:15;3.67;;;1.00;;
44130;SDS011;29792;48.726;9.248;2022-10-26T15:43:48;4.95;;;1.42;;
44130;SDS011;29792;48.726;9.248;2022-10-26T15:46:15;6.32;;;1.40;;
44130;SDS011;29792;48.726;9.248;2022-10-26T15:48:41;5.38;;;1.58;;
44130;SDS011;29792;48.726;9.248;2022-10-26T15:51:09;8.35;;;1.90;;
44130;SDS011;29792;48.726;9.248;2022-10-26T15:53:37;2.90;;;0.70;;
44130;SDS011;29792;48.726;9.248;2022-10-26T15:56:02;4.55;;;1.20;;
44130;SDS011;29792;48.726;9.248;2022-10-26T15:58:35;4.03;;;1.23;;
44130;SDS011;29792;48.726;9.248;2022-10-26T16:01:00;6.47;;;1.88;;
44130;SDS011;29792;48.726;9.248;2022-10-26T16:03:26;4.75;;;1.27;;
44130;SDS011;29792;48.726;9.248;2022-10-26T16:05:56;5.53;;;0.85;;
44130;SDS011;29792;48.726;9.248;2022-10-26T16:08:23;5.60;;;1.02;;
44130;SDS011;29792;48.726;9.248;2022-10-26T16:10:51;4.53;;;2.08;;
44130;SDS011;29792;48.726;9.248;2022-10-26T16:13:16;8.55;;;2.00;;
44130;SDS011;29792;48.726;9.248;2022-10-26T16:15:42;3.28;;;1.52;;
44130;SDS011;29792;48.726;9.248;2022-10-26T16:18:08;3.13;;;1.02;;
44130;SDS011;29792;48.726;9.248;2022-10-26T16:20:33;5.25;;;1.73;;
44130;SDS011;29792;48.726;9.248;2022-10-26T16:22:58;5.80;;;1.35;;
44130;SDS011;29792;48.726;9.248;2022-10-26T16:25:30;5.13;;;1.30;;
44130;SDS011;29792;48.726;9.248;2022-10-26T16:27:57;8.50;;;2.83;;
44130;SDS011;29792;48.726;9.248;2022-10-26T16:30:22;4.68;;;1.58;;
44130;SDS011;29792;48.726;9.248;2022-10-26T16:32:47;5.75;;;2.10;;
44130;SDS011;29792;48.726;9.248;2022-10-26T16:35:13;9.90;;;2.05;;
44130;SDS011;29792;48.726;9.248;2022-10-26T16:37:38;6.40;;;2.00;;
44130;SDS011;29792;48.726;9.248;2022-10-26T16:40:04;3.50;;;2.60;;
44130;SDS011;29792;48.726;9.248;2022-10-26T16:42:30;9.43;;;2.50;;
44130;SDS011;29792;48.726;9.248;2022-10-26T16:44:56;5.45;;;3.63;;
44130;SDS011;29792;48.726;9.248;2022-10-26T16:47:22;13.52;;;8.90;;
44130;SDS011;29792;48.726;9.248;2022-10-26T16:49:47;7.60;;;5.78;;
44130;SDS011;29792;48.726;9.248;2022-10-26T16:52:13;9.73;;;4.15;;
44130;SDS011;29792;48.726;9.248;2022-10-26T16:54:38;5.38;;;3.30;;
44130;SDS011;29792;48.726;9.248;2022-10-26T16:57:04;4.13;;;3.13;;
44130;SDS011;29792;48.726;9.248;2022-10-26T16:59:29;3.03;;;1.90;;
44130;SDS011;29792;48.726;9.248;2022-10-26T17:01:55;4.10;;;2.17;;
44130;SDS011;29792;48.726;9.248;2022-10-26T17:04:20;2.15;;;1.70;;
44130;SDS011;29792;48.726;9.248;2022-10-26T17:06:46;5.78;;;2.42;;
44130;SDS011;29792;48.726;9.248;2022-10-26T17:09:11;5.45;;;2.58;;
44130;SDS011;29792;48.726;9.248;2022-10-26T17:11:36;9.02;;;4.47;;
44130;SDS011;29792;48.726;9.248;2022-10-26T17:14:02;15.68;;;9.38;;
44130;SDS011;29792;48.726;9.248;2022-10-26T17:16:27;5.75;;;4.00;;
44130;SDS011;29792;48.726;9.248;2022-10-26T17:18:52;6.03;;;3.78;;
44130;SDS011;29792;48.726;9.248;2022-10-26T17:21:19;4.68;;;2.22;;